sensor_id;sensor_type;location;lat;lon;timestamp;P1;durP1;ratioP1;P2;durP2;ratioP2
28547;SDS011;68292;49.600;8.746;2023-09-07T00:02:21;4.43;;;4.00;;
28547;SDS011;68292;49.600;8.746;2023-09-07T00:05:05;7.82;;;4.30;;
28547;SDS011;68292;49.600;8.746;2023-09-07T00:07:35;4.53;;;3.90;;
28547;SDS011;68292;49.600;8.746;2023-09-07T00:10:06;4.25;;;3.85;;
28547;SDS011;68292;49.600;8.746;2023-09-07T00:12:36;4.55;;;3.85;;
28547;SDS011;68292;49.600;8.746;2023-09-07T00:15:06;4.68;;;3.85;;
28547;SDS011;68292;49.600;8.746;2023-09-07T00:17:37;3.92;;;3.58;;
28547;SDS011;68292;49.600;8.746;2023-09-07T00:20:06;5.65;;;3.83;;
28547;SDS011;68292;49.600;8.746;2023-09-07T00:22:38;3.72;;;3.42;;
28547;SDS011;68292;49.600;8.746;2023-09-07T00:25:09;6.10;;;3.67;;
28547;SDS011;68292;49.600;8.746;2023-09-07T00:27:37;4.30;;;3.80;;
28547;SDS011;68292;49.600;8.746;2023-09-07T00:30:06;4.28;;;3.88;;
28547;SDS011;68292;49.600;8.746;2023-09-07T00:32:37;4.10;;;3.72;;
28547;SDS011;68292;49.600;8.746;2023-09-07T00:35:07;3.78;;;3.47;;
28547;SDS011;68292;49.600;8.746;2023-09-07T00:37:36;4.43;;;3.95;;
28547;SDS011;68292;49.600;8.746;2023-09-07T00:40:10;3.72;;;3.42;;
28547;SDS011;68292;49.600;8.746;2023-09-07T00:42:39;3.92;;;3.60;;
28547;SDS011;68292;49.600;8.746;2023-09-07T00:45:08;7.32;;;3.80;;
28547;SDS011;68292;49.600;8.746;2023-09-07T00:47:38;4.40;;;3.30;;
28547;SDS011;68292;49.600;8.746;2023-09-07T00:50:07;3.97;;;3.50;;
28547;SDS011;68292;49.600;8.746;2023-09-07T00:52:40;4.88;;;3.42;;
28547;SDS011;68292;49.600;8.746;2023-09-07T00:55:12;4.35;;;3.95;;
28547;SDS011;68292;49.600;8.746;2023-09-07T00:57:41;3.72;;;3.42;;
28547;SDS011;68292;49.600;8.746;2023-09-07T01:00:11;3.45;;;3.17;;
28547;SDS011;68292;49.600;8.746;2023-09-07T01:02:40;3.85;;;3.55;;
28547;SDS011;68292;49.600;8.746;2023-09-07T01:05:12;5.10;;;3.85;;
28547;SDS011;68292;49.600;8.746;2023-09-07T01:07:42;3.83;;;3.40;;
28547;SDS011;68292;49.600;8.746;2023-09-07T01:10:16;5.25;;;3.47;;
28547;SDS011;68292;49.600;8.746;2023-09-07T01:12:48;3.78;;;3.47;;
28547;SDS011;68292;49.600;8.746;2023-09-07T01:15:17;4.10;;;3.80;;
28547;SDS011;68292;49.600;8.746;2023-09-07T01:17:46;3.85;;;3.45;;
28547;SDS011;68292;49.600;8.746;2023-09-07T01:20:15;3.97;;;3.13;;
28547;SDS011;68292;49.600;8.746;2023-09-07T01:22:46;4.35;;;3.95;;
28547;SDS011;68292;49.600;8.746;2023-09-07T01:25:15;4.03;;;3.63;;
28547;SDS011;68292;49.600;8.746;2023-09-07T01:27:45;3.97;;;3.45;;
28547;SDS011;68292;49.600;8.746;2023-09-07T01:30:15;4.05;;;3.65;;
28547;SDS011;68292;49.600;8.746;2023-09-07T01:32:44;4.00;;;3.67;;
28547;SDS011;68292;49.600;8.746;2023-09-07T01:35:13;3.70;;;3.40;;
28547;SDS011;68292;49.600;8.746;2023-09-07T01:37:50;3.70;;;3.40;;
28547;SDS011;68292;49.600;8.746;2023-09-07T01:40:19;3.85;;;3.55;;
28547;SDS011;68292;49.600;8.746;2023-09-07T01:42:48;4.30;;;3.88;;
28547;SDS011;68292;49.600;8.746;2023-09-07T01:45:16;3.97;;;3.67;;
28547;SDS011;68292;49.600;8.746;2023-09-07T01:47:45;4.88;;;3.67;;
28547;SDS011;68292;49.600;8.746;2023-09-07T01:50:14;3.67;;;3.38;;
28547;SDS011;68292;49.600;8.746;2023-09-07T01:52:45;3.58;;;3.35;;
28547;SDS011;68292;49.600;8.746;2023-09-07T01:55:17;4.03;;;3.72;;
28547;SDS011;68292;49.600;8.746;2023-09-07T01:57:45;3.97;;;3.67;;
28547;SDS011;68292;49.600;8.746;2023-09-07T02:00:14;3.72;;;3.30;;
28547;SDS011;68292;49.600;8.746;2023-09-07T02:02:43;7.72;;;3.65;;
28547;SDS011;68292;49.600;8.746;2023-09-07T02:05:12;3.90;;;3.60;;
28547;SDS011;68292;49.600;8.746;2023-09-07T02:07:41;4.40;;;4.00;;
28547;SDS011;68292;49.600;8.746;2023-09-07T02:10:10;4.00;;;3.67;;
28547;SDS011;68292;49.600;8.746;2023-09-07T02:12:45;5.03;;;4.00;;
28547;SDS011;68292;49.600;8.746;2023-09-07T02:15:14;3.95;;;3.55;;
28547;SDS011;68292;49.600;8.746;2023-09-07T02:17:43;3.70;;;3.40;;
28547;SDS011;68292;49.600;8.746;2023-09-07T02:20:15;4.30;;;3.90;;
28547;SDS011;68292;49.600;8.746;2023-09-07T02:22:45;3.50;;;3.22;;
28547;SDS011;68292;49.600;8.746;2023-09-07T02:25:14;3.75;;;3.45;;
28547;SDS011;68292;49.600;8.746;2023-09-07T02:27:45;3.80;;;3.50;;
28547;SDS011;68292;49.600;8.746;2023-09-07T02:30:14;4.20;;;3.47;;
28547;SDS011;68292;49.600;8.746;2023-09-07T02:32:43;8.13;;;3.83;;
28547;SDS011;68292;49.600;8.746;2023-09-07T02:35:11;4.40;;;4.00;;
28547;SDS011;68292;49.600;8.746;2023-09-07T02:37:40;4.32;;;3.92;;
28547;SDS011;68292;49.600;8.746;2023-09-07T02:40:09;4.55;;;4.15;;
28547;SDS011;68292;49.600;8.746;2023-09-07T02:42:39;4.35;;;3.67;;
28547;SDS011;68292;49.600;8.746;2023-09-07T02:45:11;4.15;;;3.80;;
28547;SDS011;68292;49.600;8.746;2023-09-07T02:47:40;3.80;;;3.50;;
28547;SDS011;68292;49.600;8.746;2023-09-07T02:50:09;4.10;;;3.70;;
28547;SDS011;68292;49.600;8.746;2023-09-07T02:52:37;4.13;;;3.72;;
28547;SDS011;68292;49.600;8.746;2023-09-07T02:55:08;4.07;;;3.70;;
28547;SDS011;68292;49.600;8.746;2023-09-07T02:57:37;4.93;;;3.70;;
28547;SDS011;68292;49.600;8.746;2023-09-07T03:00:06;5.00;;;3.50;;
28547;SDS011;68292;49.600;8.746;2023-09-07T03:02:39;4.32;;;3.75;;
28547;SDS011;68292;49.600;8.746;2023-09-07T03:05:09;3.60;;;3.30;;
28547;SDS011;68292;49.600;8.746;2023-09-07T03:07:39;3.65;;;3.35;;
28547;SDS011;68292;49.600;8.746;2023-09-07T03:10:08;4.25;;;3.85;;
28547;SDS011;68292;49.600;8.746;2023-09-07T03:12:40;3.70;;;3.45;;
28547;SDS011;68292;49.600;8.746;2023-09-07T03:15:09;4.38;;;3.97;;
28547;SDS011;68292;49.600;8.746;2023-09-07T03:17:42;4.07;;;3.78;;
28547;SDS011;68292;49.600;8.746;2023-09-07T03:20:12;4.20;;;3.80;;
28547;SDS011;68292;49.600;8.746;2023-09-07T03:22:45;3.80;;;3.50;;
28547;SDS011;68292;49.600;8.746;2023-09-07T03:25:14;3.78;;;3.47;;
28547;SDS011;68292;49.600;8.746;2023-09-07T03:27:43;4.00;;;3.63;;
28547;SDS011;68292;49.600;8.746;2023-09-07T03:30:14;4.40;;;3.63;;
28547;SDS011;68292;49.600;8.746;2023-09-07T03:32:44;4.25;;;3.85;;
28547;SDS011;68292;49.600;8.746;2023-09-07T03:35:13;4.20;;;3.80;;
28547;SDS011;68292;49.600;8.746;2023-09-07T03:37:42;6.03;;;3.63;;
28547;SDS011;68292;49.600;8.746;2023-09-07T03:40:11;4.22;;;3.50;;
28547;SDS011;68292;49.600;8.746;2023-09-07T03:42:40;3.90;;;3.53;;
28547;SDS011;68292;49.600;8.746;2023-09-07T03:45:12;5.20;;;3.78;;
28547;SDS011;68292;49.600;8.746;2023-09-07T03:47:41;4.25;;;3.75;;
28547;SDS011;68292;49.600;8.746;2023-09-07T03:50:14;3.58;;;3.28;;
28547;SDS011;68292;49.600;8.746;2023-09-07T03:52:43;3.90;;;3.60;;
28547;SDS011;68292;49.600;8.746;2023-09-07T03:55:12;3.97;;;3.60;;
28547;SDS011;68292;49.600;8.746;2023-09-07T03:57:40;4.07;;;3.78;;
28547;SDS011;68292;49.600;8.746;2023-09-07T04:00:10;4.32;;;3.88;;
28547;SDS011;68292;49.600;8.746;2023-09-07T04:02:47;4.10;;;3.80;;
28547;SDS011;68292;49.600;8.746;2023-09-07T04:05:16;4.78;;;3.83;;
28547;SDS011;68292;49.600;8.746;2023-09-07T04:07:45;4.20;;;3.90;;
28547;SDS011;68292;49.600;8.746;2023-09-07T04:10:14;4.38;;;3.88;;
28547;SDS011;68292;49.600;8.746;2023-09-07T04:12:43;4.45;;;4.15;;
28547;SDS011;68292;49.600;8.746;2023-09-07T04:15:12;5.43;;;3.88;;
28547;SDS011;68292;49.600;8.746;2023-09-07T04:17:42;4.22;;;3.90;;
28547;SDS011;68292;49.600;8.746;2023-09-07T04:20:12;4.05;;;3.75;;
28547;SDS011;68292;49.600;8.746;2023-09-07T04:22:41;4.20;;;3.80;;
28547;SDS011;68292;49.600;8.746;2023-09-07T04:25:09;3.92;;;3.63;;
28547;SDS011;68292;49.600;8.746;2023-09-07T04:27:39;3.80;;;3.50;;
28547;SDS011;68292;49.600;8.746;2023-09-07T04:30:08;4.20;;;3.80;;
28547;SDS011;68292;49.600;8.746;2023-09-07T04:32:38;3.95;;;3.65;;
28547;SDS011;68292;49.600;8.746;2023-09-07T04:35:07;4.25;;;3.95;;
28547;SDS011;68292;49.600;8.746;2023-09-07T04:37:38;4.13;;;3.83;;
28547;SDS011;68292;49.600;8.746;2023-09-07T04:40:10;4.15;;;3.85;;
28547;SDS011;68292;49.600;8.746;2023-09-07T04:42:40;6.43;;;4.00;;
28547;SDS011;68292;49.600;8.746;2023-09-07T04:45:09;4.43;;;3.80;;
28547;SDS011;68292;49.600;8.746;2023-09-07T04:47:38;4.47;;;4.18;;
28547;SDS011;68292;49.600;8.746;2023-09-07T04:50:07;4.88;;;3.90;;
28547;SDS011;68292;49.600;8.746;2023-09-07T04:52:38;4.45;;;4.13;;
28547;SDS011;68292;49.600;8.746;2023-09-07T04:55:07;4.18;;;3.88;;
28547;SDS011;68292;49.600;8.746;2023-09-07T04:57:37;4.25;;;3.95;;
28547;SDS011;68292;49.600;8.746;2023-09-07T05:00:06;6.75;;;3.78;;
28547;SDS011;68292;49.600;8.746;2023-09-07T05:02:36;4.13;;;3.72;;
28547;SDS011;68292;49.600;8.746;2023-09-07T05:05:11;4.22;;;3.85;;
28547;SDS011;68292;49.600;8.746;2023-09-07T05:07:43;4.13;;;3.83;;
28547;SDS011;68292;49.600;8.746;2023-09-07T05:10:11;4.53;;;4.00;;
28547;SDS011;68292;49.600;8.746;2023-09-07T05:12:43;4.53;;;3.97;;
28547;SDS011;68292;49.600;8.746;2023-09-07T05:15:13;7.10;;;4.43;;
28547;SDS011;68292;49.600;8.746;2023-09-07T05:17:42;4.40;;;4.10;;
28547;SDS011;68292;49.600;8.746;2023-09-07T05:20:11;4.43;;;4.10;;
28547;SDS011;68292;49.600;8.746;2023-09-07T05:22:40;5.00;;;4.55;;
28547;SDS011;68292;49.600;8.746;2023-09-07T05:25:10;4.00;;;3.70;;
28547;SDS011;68292;49.600;8.746;2023-09-07T05:27:39;4.78;;;4.38;;
28547;SDS011;68292;49.600;8.746;2023-09-07T05:30:10;4.78;;;4.28;;
28547;SDS011;68292;49.600;8.746;2023-09-07T05:32:39;5.80;;;4.38;;
28547;SDS011;68292;49.600;8.746;2023-09-07T05:35:09;5.03;;;4.13;;
28547;SDS011;68292;49.600;8.746;2023-09-07T05:37:39;7.40;;;4.07;;
28547;SDS011;68292;49.600;8.746;2023-09-07T05:40:09;4.57;;;4.18;;
28547;SDS011;68292;49.600;8.746;2023-09-07T05:42:39;4.35;;;4.05;;
28547;SDS011;68292;49.600;8.746;2023-09-07T05:45:08;4.15;;;3.75;;
28547;SDS011;68292;49.600;8.746;2023-09-07T05:47:37;4.63;;;4.20;;
28547;SDS011;68292;49.600;8.746;2023-09-07T05:50:06;4.22;;;3.92;;
28547;SDS011;68292;49.600;8.746;2023-09-07T05:52:35;4.13;;;3.83;;
28547;SDS011;68292;49.600;8.746;2023-09-07T05:55:05;5.10;;;4.50;;
28547;SDS011;68292;49.600;8.746;2023-09-07T05:57:36;4.40;;;4.00;;
28547;SDS011;68292;49.600;8.746;2023-09-07T06:00:06;4.50;;;4.05;;
28547;SDS011;68292;49.600;8.746;2023-09-07T06:02:41;4.68;;;4.07;;
28547;SDS011;68292;49.600;8.746;2023-09-07T06:05:11;4.88;;;4.43;;
28547;SDS011;68292;49.600;8.746;2023-09-07T06:07:40;5.53;;;4.28;;
28547;SDS011;68292;49.600;8.746;2023-09-07T06:10:10;4.85;;;4.45;;
28547;SDS011;68292;49.600;8.746;2023-09-07T06:12:41;4.20;;;3.90;;
28547;SDS011;68292;49.600;8.746;2023-09-07T06:15:10;4.30;;;3.90;;
28547;SDS011;68292;49.600;8.746;2023-09-07T06:17:39;4.25;;;3.95;;
28547;SDS011;68292;49.600;8.746;2023-09-07T06:20:09;4.55;;;4.15;;
28547;SDS011;68292;49.600;8.746;2023-09-07T06:22:38;7.13;;;4.22;;
28547;SDS011;68292;49.600;8.746;2023-09-07T06:25:07;4.85;;;4.45;;
28547;SDS011;68292;49.600;8.746;2023-09-07T06:27:37;4.65;;;4.05;;
28547;SDS011;68292;49.600;8.746;2023-09-07T06:30:09;4.97;;;4.47;;
28547;SDS011;68292;49.600;8.746;2023-09-07T06:32:39;4.80;;;4.40;;
28547;SDS011;68292;49.600;8.746;2023-09-07T06:35:10;4.82;;;4.43;;
28547;SDS011;68292;49.600;8.746;2023-09-07T06:37:39;6.60;;;4.72;;
28547;SDS011;68292;49.600;8.746;2023-09-07T06:40:11;5.20;;;4.68;;
28547;SDS011;68292;49.600;8.746;2023-09-07T06:42:43;5.38;;;4.57;;
28547;SDS011;68292;49.600;8.746;2023-09-07T06:45:16;4.38;;;4.03;;
28547;SDS011;68292;49.600;8.746;2023-09-07T06:47:45;5.05;;;4.65;;
28547;SDS011;68292;49.600;8.746;2023-09-07T06:50:19;5.50;;;4.13;;
28547;SDS011;68292;49.600;8.746;2023-09-07T06:52:49;5.38;;;4.68;;
28547;SDS011;68292;49.600;8.746;2023-09-07T06:55:19;5.63;;;4.80;;
28547;SDS011;68292;49.600;8.746;2023-09-07T06:57:48;5.57;;;5.07;;
28547;SDS011;68292;49.600;8.746;2023-09-07T07:00:18;4.88;;;4.47;;
28547;SDS011;68292;49.600;8.746;2023-09-07T07:02:48;7.53;;;4.57;;
28547;SDS011;68292;49.600;8.746;2023-09-07T07:05:17;4.53;;;4.22;;
28547;SDS011;68292;49.600;8.746;2023-09-07T07:07:47;4.78;;;4.07;;
28547;SDS011;68292;49.600;8.746;2023-09-07T07:10:15;5.40;;;4.88;;
28547;SDS011;68292;49.600;8.746;2023-09-07T07:12:45;5.68;;;4.60;;
28547;SDS011;68292;49.600;8.746;2023-09-07T07:15:14;5.50;;;4.53;;
28547;SDS011;68292;49.600;8.746;2023-09-07T07:17:45;5.68;;;4.47;;
28547;SDS011;68292;49.600;8.746;2023-09-07T07:20:14;5.70;;;4.68;;
28547;SDS011;68292;49.600;8.746;2023-09-07T07:22:43;6.38;;;4.43;;
28547;SDS011;68292;49.600;8.746;2023-09-07T07:25:14;4.93;;;4.63;;
28547;SDS011;68292;49.600;8.746;2023-09-07T07:27:44;4.55;;;4.18;;
28547;SDS011;68292;49.600;8.746;2023-09-07T07:30:14;5.05;;;4.65;;
28547;SDS011;68292;49.600;8.746;2023-09-07T07:32:45;5.55;;;5.05;;
28547;SDS011;68292;49.600;8.746;2023-09-07T07:35:14;4.70;;;4.40;;
28547;SDS011;68292;49.600;8.746;2023-09-07T07:37:44;5.82;;;4.72;;
28547;SDS011;68292;49.600;8.746;2023-09-07T07:40:13;5.70;;;4.13;;
28547;SDS011;68292;49.600;8.746;2023-09-07T07:42:42;4.95;;;4.55;;
28547;SDS011;68292;49.600;8.746;2023-09-07T07:45:10;5.00;;;4.60;;
28547;SDS011;68292;49.600;8.746;2023-09-07T07:47:40;5.40;;;4.75;;
28547;SDS011;68292;49.600;8.746;2023-09-07T07:50:11;5.78;;;5.28;;
28547;SDS011;68292;49.600;8.746;2023-09-07T07:52:40;5.25;;;4.85;;
28547;SDS011;68292;49.600;8.746;2023-09-07T07:55:09;4.90;;;4.50;;
28547;SDS011;68292;49.600;8.746;2023-09-07T07:57:39;5.80;;;4.60;;
28547;SDS011;68292;49.600;8.746;2023-09-07T08:00:10;5.10;;;4.60;;
28547;SDS011;68292;49.600;8.746;2023-09-07T08:02:47;4.80;;;4.40;;
28547;SDS011;68292;49.600;8.746;2023-09-07T08:05:18;7.30;;;4.85;;
28547;SDS011;68292;49.600;8.746;2023-09-07T08:07:46;5.28;;;4.82;;
28547;SDS011;68292;49.600;8.746;2023-09-07T08:10:16;6.45;;;5.25;;
28547;SDS011;68292;49.600;8.746;2023-09-07T08:12:45;5.47;;;4.63;;
28547;SDS011;68292;49.600;8.746;2023-09-07T08:15:14;4.80;;;4.40;;
28547;SDS011;68292;49.600;8.746;2023-09-07T08:17:47;5.45;;;4.60;;
28547;SDS011;68292;49.600;8.746;2023-09-07T08:20:18;9.65;;;6.28;;
28547;SDS011;68292;49.600;8.746;2023-09-07T08:22:47;11.38;;;7.47;;
28547;SDS011;68292;49.600;8.746;2023-09-07T08:25:16;6.25;;;5.68;;
28547;SDS011;68292;49.600;8.746;2023-09-07T08:27:45;11.57;;;7.20;;
28547;SDS011;68292;49.600;8.746;2023-09-07T08:30:15;7.55;;;6.55;;
28547;SDS011;68292;49.600;8.746;2023-09-07T08:32:45;6.20;;;5.60;;
28547;SDS011;68292;49.600;8.746;2023-09-07T08:35:14;5.95;;;5.03;;
28547;SDS011;68292;49.600;8.746;2023-09-07T08:37:45;6.60;;;5.00;;
28547;SDS011;68292;49.600;8.746;2023-09-07T08:40:14;6.65;;;5.00;;
28547;SDS011;68292;49.600;8.746;2023-09-07T08:42:43;5.53;;;5.03;;
28547;SDS011;68292;49.600;8.746;2023-09-07T08:45:13;5.63;;;5.10;;
28547;SDS011;68292;49.600;8.746;2023-09-07T08:47:47;5.03;;;4.53;;
28547;SDS011;68292;49.600;8.746;2023-09-07T08:50:18;5.05;;;4.65;;
28547;SDS011;68292;49.600;8.746;2023-09-07T08:52:49;5.65;;;5.05;;
28547;SDS011;68292;49.600;8.746;2023-09-07T08:55:20;5.05;;;4.65;;
28547;SDS011;68292;49.600;8.746;2023-09-07T08:57:50;5.15;;;4.65;;
28547;SDS011;68292;49.600;8.746;2023-09-07T09:00:19;5.43;;;4.93;;
28547;SDS011;68292;49.600;8.746;2023-09-07T09:02:48;5.10;;;4.68;;
28547;SDS011;68292;49.600;8.746;2023-09-07T09:05:22;5.15;;;4.75;;
28547;SDS011;68292;49.600;8.746;2023-09-07T09:08:01;5.40;;;4.95;;
28547;SDS011;68292;49.600;8.746;2023-09-07T09:10:33;4.95;;;4.60;;
28547;SDS011;68292;49.600;8.746;2023-09-07T09:13:05;5.05;;;4.50;;
28547;SDS011;68292;49.600;8.746;2023-09-07T09:15:34;5.47;;;5.00;;
28547;SDS011;68292;49.600;8.746;2023-09-07T09:18:10;5.63;;;4.90;;
28547;SDS011;68292;49.600;8.746;2023-09-07T09:20:40;5.13;;;4.72;;
28547;SDS011;68292;49.600;8.746;2023-09-07T09:23:10;5.32;;;4.93;;
28547;SDS011;68292;49.600;8.746;2023-09-07T09:25:41;5.22;;;4.82;;
28547;SDS011;68292;49.600;8.746;2023-09-07T09:28:10;4.55;;;4.25;;
28547;SDS011;68292;49.600;8.746;2023-09-07T09:30:39;7.13;;;5.35;;
28547;SDS011;68292;49.600;8.746;2023-09-07T09:33:10;5.32;;;4.85;;
28547;SDS011;68292;49.600;8.746;2023-09-07T09:35:39;4.85;;;4.45;;
28547;SDS011;68292;49.600;8.746;2023-09-07T09:38:12;5.05;;;4.65;;
28547;SDS011;68292;49.600;8.746;2023-09-07T09:40:41;5.15;;;4.72;;
28547;SDS011;68292;49.600;8.746;2023-09-07T09:43:10;5.18;;;4.75;;
28547;SDS011;68292;49.600;8.746;2023-09-07T09:45:40;4.75;;;4.35;;
28547;SDS011;68292;49.600;8.746;2023-09-07T09:48:09;5.03;;;4.57;;
28547;SDS011;68292;49.600;8.746;2023-09-07T09:50:39;5.22;;;4.72;;
28547;SDS011;68292;49.600;8.746;2023-09-07T09:53:09;4.75;;;4.35;;
28547;SDS011;68292;49.600;8.746;2023-09-07T09:55:42;5.53;;;5.03;;
28547;SDS011;68292;49.600;8.746;2023-09-07T09:58:13;5.28;;;4.72;;
28547;SDS011;68292;49.600;8.746;2023-09-07T10:00:42;4.30;;;3.90;;
28547;SDS011;68292;49.600;8.746;2023-09-07T10:03:13;4.40;;;4.10;;
28547;SDS011;68292;49.600;8.746;2023-09-07T10:05:47;4.00;;;3.50;;
28547;SDS011;68292;49.600;8.746;2023-09-07T10:08:17;3.03;;;2.83;;
28547;SDS011;68292;49.600;8.746;2023-09-07T10:10:52;3.63;;;3.42;;
28547;SDS011;68292;49.600;8.746;2023-09-07T10:13:29;3.65;;;3.35;;
28547;SDS011;68292;49.600;8.746;2023-09-07T10:16:00;3.80;;;3.50;;
28547;SDS011;68292;49.600;8.746;2023-09-07T10:18:35;4.20;;;3.90;;
28547;SDS011;68292;49.600;8.746;2023-09-07T10:21:06;4.50;;;4.18;;
28547;SDS011;68292;49.600;8.746;2023-09-07T10:23:36;4.32;;;3.92;;
28547;SDS011;68292;49.600;8.746;2023-09-07T10:26:10;6.10;;;4.57;;
28547;SDS011;68292;49.600;8.746;2023-09-07T10:28:40;4.97;;;4.57;;
28547;SDS011;68292;49.600;8.746;2023-09-07T10:31:13;4.93;;;4.53;;
28547;SDS011;68292;49.600;8.746;2023-09-07T10:33:43;4.15;;;3.85;;
28547;SDS011;68292;49.600;8.746;2023-09-07T10:36:22;4.13;;;3.83;;
28547;SDS011;68292;49.600;8.746;2023-09-07T10:38:55;4.03;;;3.72;;
28547;SDS011;68292;49.600;8.746;2023-09-07T10:41:24;5.47;;;3.80;;
28547;SDS011;68292;49.600;8.746;2023-09-07T10:43:53;4.03;;;3.63;;
28547;SDS011;68292;49.600;8.746;2023-09-07T10:46:23;3.85;;;3.55;;
28547;SDS011;68292;49.600;8.746;2023-09-07T10:48:53;4.20;;;3.80;;
28547;SDS011;68292;49.600;8.746;2023-09-07T10:51:23;4.57;;;4.05;;
28547;SDS011;68292;49.600;8.746;2023-09-07T10:53:53;4.03;;;3.72;;
28547;SDS011;68292;49.600;8.746;2023-09-07T10:56:24;4.30;;;3.90;;
28547;SDS011;68292;49.600;8.746;2023-09-07T10:58:53;4.53;;;4.07;;
28547;SDS011;68292;49.600;8.746;2023-09-07T11:01:22;4.65;;;3.83;;
28547;SDS011;68292;49.600;8.746;2023-09-07T11:03:51;4.68;;;4.25;;
28547;SDS011;68292;49.600;8.746;2023-09-07T11:06:20;4.70;;;4.30;;
28547;SDS011;68292;49.600;8.746;2023-09-07T11:08:54;5.28;;;3.70;;
28547;SDS011;68292;49.600;8.746;2023-09-07T11:11:23;4.18;;;3.78;;
28547;SDS011;68292;49.600;8.746;2023-09-07T11:13:52;4.18;;;3.88;;
28547;SDS011;68292;49.600;8.746;2023-09-07T11:16:24;4.70;;;4.30;;
28547;SDS011;68292;49.600;8.746;2023-09-07T11:18:53;4.30;;;3.90;;
28547;SDS011;68292;49.600;8.746;2023-09-07T11:21:22;3.80;;;3.50;;
28547;SDS011;68292;49.600;8.746;2023-09-07T11:23:54;5.30;;;3.80;;
28547;SDS011;68292;49.600;8.746;2023-09-07T11:26:25;4.07;;;3.67;;
28547;SDS011;68292;49.600;8.746;2023-09-07T11:28:53;4.20;;;3.90;;
28547;SDS011;68292;49.600;8.746;2023-09-07T11:31:25;4.50;;;4.10;;
28547;SDS011;68292;49.600;8.746;2023-09-07T11:33:54;4.28;;;3.88;;
28547;SDS011;68292;49.600;8.746;2023-09-07T11:36:23;5.07;;;4.30;;
28547;SDS011;68292;49.600;8.746;2023-09-07T11:38:53;4.43;;;4.03;;
28547;SDS011;68292;49.600;8.746;2023-09-07T11:41:22;4.82;;;4.30;;
28547;SDS011;68292;49.600;8.746;2023-09-07T11:43:51;5.03;;;4.53;;
28547;SDS011;68292;49.600;8.746;2023-09-07T11:46:20;4.82;;;4.30;;
28547;SDS011;68292;49.600;8.746;2023-09-07T11:48:51;4.15;;;3.85;;
28547;SDS011;68292;49.600;8.746;2023-09-07T11:51:20;5.47;;;3.85;;
28547;SDS011;68292;49.600;8.746;2023-09-07T11:53:49;4.45;;;4.05;;
28547;SDS011;68292;49.600;8.746;2023-09-07T11:56:19;4.47;;;4.07;;
28547;SDS011;68292;49.600;8.746;2023-09-07T11:58:48;4.65;;;4.20;;
28547;SDS011;68292;49.600;8.746;2023-09-07T12:01:17;3.90;;;3.60;;
28547;SDS011;68292;49.600;8.746;2023-09-07T12:03:46;4.90;;;4.50;;
28547;SDS011;68292;49.600;8.746;2023-09-07T12:06:15;4.35;;;4.05;;
28547;SDS011;68292;49.600;8.746;2023-09-07T12:08:57;4.47;;;4.13;;
28547;SDS011;68292;49.600;8.746;2023-09-07T12:11:29;4.05;;;3.72;;
28547;SDS011;68292;49.600;8.746;2023-09-07T12:13:58;4.63;;;4.25;;
28547;SDS011;68292;49.600;8.746;2023-09-07T12:16:27;5.20;;;4.20;;
28547;SDS011;68292;49.600;8.746;2023-09-07T12:18:57;4.18;;;3.88;;
28547;SDS011;68292;49.600;8.746;2023-09-07T12:21:26;4.30;;;3.90;;
28547;SDS011;68292;49.600;8.746;2023-09-07T12:23:55;5.70;;;4.40;;
28547;SDS011;68292;49.600;8.746;2023-09-07T12:26:24;5.03;;;4.50;;
28547;SDS011;68292;49.600;8.746;2023-09-07T12:28:54;4.80;;;4.50;;
28547;SDS011;68292;49.600;8.746;2023-09-07T12:31:22;5.93;;;4.15;;
28547;SDS011;68292;49.600;8.746;2023-09-07T12:33:51;5.35;;;3.97;;
28547;SDS011;68292;49.600;8.746;2023-09-07T12:36:20;4.20;;;3.90;;
28547;SDS011;68292;49.600;8.746;2023-09-07T12:38:49;4.72;;;4.32;;
28547;SDS011;68292;49.600;8.746;2023-09-07T12:41:17;4.35;;;4.05;;
28547;SDS011;68292;49.600;8.746;2023-09-07T12:43:47;4.43;;;4.03;;
28547;SDS011;68292;49.600;8.746;2023-09-07T12:46:17;4.38;;;4.07;;
28547;SDS011;68292;49.600;8.746;2023-09-07T12:48:46;4.45;;;4.13;;
28547;SDS011;68292;49.600;8.746;2023-09-07T12:51:16;4.95;;;4.47;;
28547;SDS011;68292;49.600;8.746;2023-09-07T12:53:44;3.97;;;3.58;;
28547;SDS011;68292;49.600;8.746;2023-09-07T12:56:13;4.22;;;3.83;;
28547;SDS011;68292;49.600;8.746;2023-09-07T12:58:42;4.50;;;4.10;;
28547;SDS011;68292;49.600;8.746;2023-09-07T13:01:11;4.40;;;4.00;;
28547;SDS011;68292;49.600;8.746;2023-09-07T13:03:44;4.47;;;4.10;;
28547;SDS011;68292;49.600;8.746;2023-09-07T13:06:13;4.22;;;3.83;;
28547;SDS011;68292;49.600;8.746;2023-09-07T13:08:44;4.65;;;4.25;;
28547;SDS011;68292;49.600;8.746;2023-09-07T13:11:12;5.30;;;4.50;;
28547;SDS011;68292;49.600;8.746;2023-09-07T13:13:41;4.60;;;4.20;;
28547;SDS011;68292;49.600;8.746;2023-09-07T13:16:10;4.47;;;4.10;;
28547;SDS011;68292;49.600;8.746;2023-09-07T13:18:40;4.20;;;3.80;;
28547;SDS011;68292;49.600;8.746;2023-09-07T13:21:10;5.18;;;4.35;;
28547;SDS011;68292;49.600;8.746;2023-09-07T13:23:39;5.60;;;3.90;;
28547;SDS011;68292;49.600;8.746;2023-09-07T13:26:08;4.53;;;4.13;;
28547;SDS011;68292;49.600;8.746;2023-09-07T13:28:38;4.50;;;4.10;;
28547;SDS011;68292;49.600;8.746;2023-09-07T13:31:07;4.43;;;4.00;;
28547;SDS011;68292;49.600;8.746;2023-09-07T13:33:36;5.70;;;4.22;;
28547;SDS011;68292;49.600;8.746;2023-09-07T13:36:05;4.28;;;3.92;;
28547;SDS011;68292;49.600;8.746;2023-09-07T13:38:37;4.80;;;4.40;;
28547;SDS011;68292;49.600;8.746;2023-09-07T13:41:08;4.95;;;3.80;;
28547;SDS011;68292;49.600;8.746;2023-09-07T13:43:36;5.00;;;4.60;;
28547;SDS011;68292;49.600;8.746;2023-09-07T13:46:05;5.40;;;4.10;;
28547;SDS011;68292;49.600;8.746;2023-09-07T13:48:34;5.00;;;4.50;;
28547;SDS011;68292;49.600;8.746;2023-09-07T13:51:02;4.80;;;4.40;;
28547;SDS011;68292;49.600;8.746;2023-09-07T13:53:33;4.10;;;3.80;;
28547;SDS011;68292;49.600;8.746;2023-09-07T13:56:03;4.43;;;4.03;;
28547;SDS011;68292;49.600;8.746;2023-09-07T13:58:32;4.85;;;4.45;;
28547;SDS011;68292;49.600;8.746;2023-09-07T14:01:01;4.15;;;3.85;;
28547;SDS011;68292;49.600;8.746;2023-09-07T14:03:29;4.70;;;4.32;;
28547;SDS011;68292;49.600;8.746;2023-09-07T14:05:59;4.82;;;4.32;;
28547;SDS011;68292;49.600;8.746;2023-09-07T14:08:27;4.28;;;3.97;;
28547;SDS011;68292;49.600;8.746;2023-09-07T14:10:57;4.75;;;4.20;;
28547;SDS011;68292;49.600;8.746;2023-09-07T14:13:28;5.32;;;3.97;;
28547;SDS011;68292;49.600;8.746;2023-09-07T14:15:57;4.28;;;3.88;;
28547;SDS011;68292;49.600;8.746;2023-09-07T14:18:26;4.25;;;3.88;;
28547;SDS011;68292;49.600;8.746;2023-09-07T14:20:55;5.03;;;4.60;;
28547;SDS011;68292;49.600;8.746;2023-09-07T14:23:25;4.68;;;4.22;;
28547;SDS011;68292;49.600;8.746;2023-09-07T14:25:54;4.72;;;4.32;;
28547;SDS011;68292;49.600;8.746;2023-09-07T14:28:23;4.43;;;4.03;;
28547;SDS011;68292;49.600;8.746;2023-09-07T14:30:54;4.90;;;4.50;;
28547;SDS011;68292;49.600;8.746;2023-09-07T14:33:25;6.25;;;4.20;;
28547;SDS011;68292;49.600;8.746;2023-09-07T14:35:54;4.45;;;4.05;;
28547;SDS011;68292;49.600;8.746;2023-09-07T14:38:23;4.32;;;3.92;;
28547;SDS011;68292;49.600;8.746;2023-09-07T14:40:54;6.13;;;4.45;;
28547;SDS011;68292;49.600;8.746;2023-09-07T14:43:23;4.82;;;4.43;;
28547;SDS011;68292;49.600;8.746;2023-09-07T14:45:51;4.70;;;4.30;;
28547;SDS011;68292;49.600;8.746;2023-09-07T14:48:22;4.47;;;3.92;;
28547;SDS011;68292;49.600;8.746;2023-09-07T14:50:51;4.25;;;3.88;;
28547;SDS011;68292;49.600;8.746;2023-09-07T14:53:20;4.22;;;3.85;;
28547;SDS011;68292;49.600;8.746;2023-09-07T14:55:49;4.38;;;4.00;;
28547;SDS011;68292;49.600;8.746;2023-09-07T14:58:17;4.90;;;4.50;;
28547;SDS011;68292;49.600;8.746;2023-09-07T15:00:46;4.40;;;4.00;;
28547;SDS011;68292;49.600;8.746;2023-09-07T15:03:16;4.78;;;4.38;;
28547;SDS011;68292;49.600;8.746;2023-09-07T15:05:45;4.30;;;3.97;;